• Join FlightAware (Why Join?)
  • Login
  • US Flag 
07:41AM EDT


 

Airport Tracker/Info


-or-


 

Live Flight TrackerFlight Track Log ✈ AAL832 ✈ 04-May-2013 ✈ KLAX - KORD

Flight Track Log - Related Links

Times and Time Zones

All times are in EDT time to prevent confusion due to time zone crossing. See the AAL832 flight status page for this flight to view local times or setup timezone preferences in your user account.

Time Position Orientation Groundspeed Altitude Reporting Facility
EDT Latitude Longitude Course Direction KTS MPH feet Rate Location/Type
12:16PM 33.9667 -118.3667 73° East 175 201 2,100  Level Southern California TRACON
12:17PM 33.9750 -118.3272 76° East 211 243 3,400 2,400 Climbing Los Angeles Center
12:18PM 34.2256 -118.1370 35° Northeast  Level FlightAware Approximate
12:18PM 34.0108 -118.2492 61° Northeast 250 288 6,400  Level Los Angeles Center
12:19PM 34.3275 -118.0544 32° Northeast  Level FlightAware Approximate
12:19PM 34.0689 -118.1844 43° Northeast 281 323 9,600  Level Los Angeles Center
12:20PM 34.3667 -117.9319 90° East  Level FlightAware Approximate
12:20PM 34.1306 -118.1169 42° Northeast 299 344 12,600  Level Los Angeles Center
12:21PM 34.3984 -117.7898 73° East  Level FlightAware Approximate
12:21PM 34.1900 -118.0383 48° Northeast 316 364 14,800  Level Los Angeles Center
12:22PM 34.2475 -117.9314 57° Northeast 372 428 16,300 2,160 Climbing Los Angeles Center
12:23PM 34.3239 -117.7889 57° Northeast 413 475 19,300 2,460 Climbing Los Angeles Center
12:24PM 34.3869 -117.6636 59° Northeast 430 495 21,400 2,040 Climbing Los Angeles Center
12:25PM 34.4561 -117.5344 57° Northeast 454 522 23,600 1,980 Climbing Los Angeles Center
12:26PM 34.5269 -117.4050 56° Northeast 461 531 25,500 1,740 Climbing Los Angeles Center
12:27PM 34.6097 -117.2778 52° Northeast 474 545 27,200 1,320 Climbing Los Angeles Center
12:28PM 34.6969 -117.1569 49° Northeast 485 558 28,300 1,260 Climbing Los Angeles Center
12:29PM 34.7892 -117.0247 50° Northeast 511 588 29,900 1,800 Climbing Los Angeles Center
12:30PM 34.8994 -116.8683 49° Northeast 512 589 32,100 1,920 Climbing Los Angeles Center
12:31PM 34.9908 -116.7386 49° Northeast 510 587 33,900 1,680 Climbing Los Angeles Center
12:32PM 35.0814 -116.6097 49° Northeast 505 581 35,600 1,440 Climbing Los Angeles Center
12:33PM 35.1711 -116.4803 50° Northeast 503 579 36,900 660 Climbing Los Angeles Center
12:34PM 35.2819 -116.3253 49° Northeast 508 585 37,000 240 Climbing Los Angeles Center
12:35PM 35.3706 -116.1956 50° Northeast 501 577 37,400 720 Climbing Los Angeles Center
12:36PM 35.4583 -116.0644 51° Northeast 498 573 38,600 720 Climbing Los Angeles Center
12:37PM 35.5511 -115.9356 48° Northeast 503 579 39,000 180 Climbing Los Angeles Center
12:38PM 35.6389 -115.8075 50° Northeast 490 564 39,000  Level Los Angeles Center
12:39PM 35.7458 -115.6514 50° Northeast 494 568 39,000  Level Los Angeles Center
12:40PM 35.8047 -115.4969 65° Northeast 504 580 39,000  Level Los Angeles Center
12:41PM 35.8475 -115.3336 72° East 506 582 39,000  Level Los Angeles Center
12:42PM 35.8919 -115.1719 71° East 504 580 39,000  Level Los Angeles Center
12:43PM 35.9356 -115.0081 72° East 505 581 39,000  Level Los Angeles Center
12:44PM 35.9861 -114.8092 73° East 508 585 39,000  Level Los Angeles Center
12:46PM 36.0278 -114.6458 72° East 503 579 39,000  Level Los Angeles Center
12:47PM 36.0706 -114.4808 72° East 505 581 39,000  Level Los Angeles Center
12:48PM 36.1131 -114.3156 72° East 506 582 39,000  Level Los Angeles Center
12:49PM 36.1567 -114.1514 72° East 505 581 39,000  Level Los Angeles Center
12:50PM 36.1906 -114.0192 72° East 506 582 39,000  Level Los Angeles Center
12:51PM 36.2489 -113.7869 73° East 507 583 39,000  Level Los Angeles Center
12:52PM 36.2903 -113.6214 73° East 504 580 39,000  Level Los Angeles Center
12:53PM 36.3319 -113.4547 73° East 506 582 39,000  Level Los Angeles Center
12:54PM 36.3736 -113.2878 73° East 507 583 39,000  Level Los Angeles Center
12:55PM 36.4214 -113.0931 73° East 506 582 39,000  Level Los Angeles Center
12:56PM 36.4617 -112.9253 73° East 509 586 39,000  Level Los Angeles Center
12:57PM 36.5011 -112.7592 73° East 506 582 39,000  Level Los Angeles Center
12:58PM 36.5411 -112.5922 73° East 508 585 39,000  Level Los Angeles Center
12:59PM 36.5806 -112.4253 74° East 507 583 39,000  Level Los Angeles Center
01:00PM 36.6278 -112.2247 74° East 507 583 39,000  Level Los Angeles Center
01:01PM 36.6517 -112.1236 74° East 508 585 39,000  Level Denver Center
01:02PM 36.6908 -111.9567 74° East 507 583 39,000  Level Denver Center
01:03PM 36.7378 -111.7547 74° East 508 585 39,000  Level Denver Center
01:04PM 36.7764 -111.5872 74° East 507 583 39,000  Level Denver Center
01:05PM 36.8169 -111.4167 73° East 511 588 39,000  Level Denver Center
01:06PM 36.8544 -111.2481 74° East 509 586 39,000  Level Denver Center
01:07PM 36.8892 -111.0825 75° East 500 575 39,000  Level Denver Center
01:08PM 36.9264 -110.9128 75° East 507 583 39,000  Level Denver Center
01:09PM 36.9714 -110.7097 74° East 508 585 39,000  Level Denver Center
01:10PM 37.0089 -110.5411 74° East 507 583 39,000  Level Denver Center
01:11PM 37.0464 -110.3714 74° East 507 583 39,000  Level Denver Center
01:12PM 37.0839 -110.2008 75° East 509 586 39,000  Level Denver Center
01:13PM 37.1258 -110.0069 75° East 507 583 39,000  Level Denver Center
01:14PM 37.1603 -109.8433 75° East 508 585 39,000  Level Denver Center
01:15PM 37.2008 -109.6492 75° East 513 590 39,000  Level Denver Center
01:16PM 37.2306 -109.5131 75° East 509 586 39,000  Level Denver Center
01:17PM 37.2697 -109.3231 75° East 504 580 39,000  Level Denver Center
01:18PM 37.3089 -109.1292 76° East 510 587 39,000  Level Denver Center
01:19PM 37.3428 -108.9642 75° East 510 587 39,000  Level Denver Center
01:20PM 37.3817 -108.7700 76° East 511 588 39,000  Level Denver Center
01:21PM 37.4147 -108.6044 76° East 511 588 39,000  Level Denver Center
01:22PM 37.4528 -108.4103 76° East 512 589 39,000  Level Denver Center
01:23PM 37.4858 -108.2450 76° East 510 587 39,000  Level Denver Center
01:25PM 37.5228 -108.0500 77° East 512 589 39,000  Level Denver Center
01:26PM 37.5561 -107.8833 76° East 512 589 39,000  Level Denver Center
01:27PM 37.5883 -107.7164 76° East 511 588 39,000  Level Denver Center
01:28PM 37.6258 -107.5214 76° East 512 589 39,000  Level Denver Center
01:29PM 37.6572 -107.3542 77° East 512 589 39,000  Level Denver Center
01:30PM 37.6944 -107.1586 76° East 513 590 39,000  Level Denver Center
01:31PM 37.7256 -106.9900 77° East 514 592 39,000  Level Denver Center
01:32PM 37.7614 -106.7925 77° East 516 594 39,000  Level Denver Center
01:33PM 37.7875 -106.6517 77° East 516 594 39,000  Level Denver Center
01:34PM 37.8267 -106.4317 77° East 517 595 39,000  Level Denver Center
01:35PM 37.8572 -106.2631 77° East 516 594 39,000  Level Denver Center
01:36PM 37.8925 -106.0647 77° East 519 597 39,000  Level Denver Center
01:37PM 37.9217 -105.8950 78° East 517 595 39,000  Level Denver Center
01:38PM 37.9506 -105.7247 78° East 515 593 39,000  Level Denver Center
01:39PM 37.9833 -105.5256 78° East 516 594 39,000  Level Denver Center
01:40PM 38.0119 -105.3550 78° East 516 594 39,000  Level Denver Center
01:41PM 38.0458 -105.1556 78° East 517 595 39,000  Level Denver Center
01:42PM 38.0742 -104.9853 78° East 515 593 39,000  Level Denver Center
01:43PM 38.1075 -104.7872 78° East 513 590 39,000  Level Denver Center
01:44PM 38.1356 -104.6161 78° East 513 590 39,000  Level Denver Center
01:45PM 38.1628 -104.4464 78° East 511 588 39,000  Level Denver Center
01:46PM 38.1933 -104.2489 79° East 509 586 39,000  Level Denver Center
01:47PM 38.2197 -104.0808 79° East 505 581 39,000  Level Denver Center
01:48PM 38.2494 -103.8825 79° East 508 585 39,000  Level Denver Center
01:49PM 38.2758 -103.7136 79° East 506 582 39,000  Level Denver Center
01:50PM 38.3050 -103.5169 79° East 505 581 39,000  Level Denver Center
01:51PM 38.3317 -103.3408 79° East 504 580 39,000  Level Denver Center
01:52PM 38.3564 -103.1731 79° East 504 580 39,000  Level Denver Center
01:53PM 38.3833 -102.9783 80° East 501 577 39,000  Level Denver Center
01:54PM 38.4089 -102.8125 79° East 498 573 39,000  Level Denver Center
01:55PM 38.4322 -102.6486 80° East 491 565 39,000  Level Denver Center
01:56PM 38.4600 -102.4561 80° East 492 566 39,000  Level Denver Center
01:57PM 38.4819 -102.2931 80° East 487 560 39,000  Level Denver Center
01:59PM 38.5083 -102.1033 80° East 487 560 39,000  Level Denver Center
02:00PM 38.5297 -101.9397 80° East 486 559 39,000  Level Denver Center
02:01PM 38.5633 -101.7531 77° East 483 556 39,000  Level Denver Center
02:02PM 38.5969 -101.5947 75° East 481 554 39,000  Level Denver Center
02:03PM 38.6292 -101.4353 75° East 482 555 39,000  Level Denver Center
02:04PM 38.6681 -101.2492 75° East 485 558 39,000  Level Denver Center
02:05PM 38.7014 -101.0906 75° East 482 555 39,000  Level Denver Center
02:06PM 38.7400 -100.9042 75° East 483 556 39,000  Level Denver Center
02:07PM 38.7725 -100.7431 75° East 486 559 39,000  Level Denver Center
02:08PM 38.8050 -100.5844 75° East 482 555 39,000  Level Denver Center
02:09PM 38.8433 -100.4014 75° East 477 549 39,000  Level Denver Center
02:10PM 38.8756 -100.2436 75° East 477 549 39,000  Level Denver Center
02:11PM 38.9122 -100.0628 75° East 471 542 39,000  Level Denver Center
02:12PM 38.9439 -99.9072 75° East 470 541 39,000  Level Denver Center
02:13PM 38.9789 -99.7264 76° East 467 537 39,000  Level Denver Center
02:14PM 39.0081 -99.5711 76° East 468 539 39,000  Level Denver Center
02:15PM 39.0378 -99.4156 76° East 468 539 39,000  Level Denver Center
02:16PM 39.0722 -99.2328 76° East 469 540 39,000  Level Denver Center
02:17PM 39.1014 -99.0789 76° East 464 534 39,000  Level Denver Center
02:18PM 39.1322 -98.9128 76° East 464 534 39,000  Level Denver Center
02:19PM 39.1628 -98.7550 76° East 457 526 39,000  Level Denver Center
02:20PM 39.1914 -98.5983 77° East 451 519 39,000  Level Denver Center
02:21PM 39.2258 -98.4128 76° East 445 512 39,000  Level Denver Center
02:22PM 39.2539 -98.2567 77° East 447 514 39,000  Level Denver Center
02:23PM 39.2831 -98.0886 77° East 439 505 39,000  Level Kansas City Center
02:24PM 39.3111 -97.9403 76° East 442 509 39,000  Level Kansas City Center
02:25PM 39.3456 -97.7614 76° East 444 511 39,000  Level Kansas City Center
02:26PM 39.3736 -97.6083 77° East 441 507 39,000  Level Kansas City Center
02:27PM 39.4003 -97.4494 78° East 436 502 39,000  Level Kansas City Center
02:28PM 39.4264 -97.3042 77° East 436 502 39,000  Level Kansas City Center
02:29PM 39.4500 -97.1592 78° East 432 497 39,000  Level Kansas City Center
02:30PM 39.4797 -96.9919 77° East 428 493 39,000  Level Kansas City Center
02:32PM 39.5044 -96.8489 77° East 425 489 39,000  Level Kansas City Center
02:33PM 39.5314 -96.6794 78° East 430 495 39,000  Level Kansas City Center
02:34PM 39.5556 -96.5336 78° East 432 497 39,000  Level Kansas City Center
02:35PM 39.5800 -96.3875 78° East 433 498 39,000  Level Kansas City Center
02:36PM 39.6067 -96.2192 78° East 427 491 39,000  Level Kansas City Center
02:37PM 39.6300 -96.0758 78° East 425 489 39,000  Level Kansas City Center
02:38PM 39.6575 -95.9061 78° East 428 493 39,000  Level Kansas City Center
02:39PM 39.6808 -95.7603 78° East 428 493 39,000  Level Kansas City Center
02:40PM 39.7039 -95.6139 78° East 430 495 39,000  Level Kansas City Center
02:41PM 39.7314 -95.4439 78° East 429 494 39,000  Level Kansas City Center
02:42PM 39.7528 -95.2986 79° East 427 491 39,000  Level Kansas City Center
02:43PM 39.7789 -95.1283 79° East 428 493 39,000  Level Kansas City Center
02:44PM 39.8111 -94.9064 79° East 436 502 39,000  Level Chicago Center
02:45PM 39.8233 -94.8303 78° East 438 504 39,000  Level Kansas City Center
02:46PM 39.8500 -94.6578 79° East 436 502 39,000  Level Kansas City Center
02:47PM 39.8722 -94.5086 79° East 437 503 39,000  Level Kansas City Center
02:48PM 39.8933 -94.3603 79° East 435 501 39,000  Level Kansas City Center
02:49PM 39.9183 -94.1886 79° East 433 498 39,000  Level Kansas City Center
02:50PM 39.9364 -94.0497 80° East 434 499 39,000  Level Kansas City Center
02:51PM 39.9625 -93.8689 79° East 428 493 39,000  Level Kansas City Center
02:52PM 39.9831 -93.7167 80° East 428 493 39,000  Level Kansas City Center
02:53PM 40.0083 -93.5678 77° East 427 491 39,000  Level Kansas City Center
02:54PM 40.0486 -93.4225 70° East 430 495 39,000  Level Kansas City Center
02:55PM 40.0833 -93.2753 73° East 428 493 39,000  Level Kansas City Center
02:56PM 40.1239 -93.1325 70° East 424 488 39,000  Level Kansas City Center
02:57PM 40.1642 -92.9742 72° East 435 501 39,000  Level Kansas City Center
02:58PM 40.2061 -92.8114 71° East 423 487 39,000  Level Kansas City Center
02:59PM 40.2417 -92.6719 71° East 421 484 39,000  Level Kansas City Center
03:00PM 40.2769 -92.5333 72° East 421 484 39,000  Level Kansas City Center
03:01PM 40.3186 -92.3703 71° East 421 484 39,000  Level Kansas City Center
03:02PM 40.3569 -92.2150 72° East 431 496 39,000 -480 Level Kansas City Center
03:03PM 40.3933 -92.0683 72° East 429 494 38,100 -1,020 Descending Kansas City Center
03:04PM 40.4300 -91.9181 72° East 433 498 36,900 -1,200 Descending Kansas City Center
03:05PM 40.4664 -91.7692 72° East 433 498 35,700 -1,140 Descending Kansas City Center
03:06PM 40.5017 -91.6250 72° East 423 487 34,600 -1,140 Descending Kansas City Center
03:07PM 40.5222 -91.5408 72° East 417 480 33,900 -1,020 Descending Chicago Center
03:08PM 40.5678 -91.3669 71° East 421 484 33,000 -480 Descending Chicago Center
03:09PM 40.6206 -91.2167 65° Northeast 433 498 33,000 -300 Level Chicago Center
03:10PM 40.6700 -91.0697 66° East 439 505 32,400 -720 Descending Chicago Center
03:11PM 40.7200 -90.9206 66° East 444 511 31,600 -780 Descending Chicago Center
03:12PM 40.7692 -90.7725 66° East 441 507 30,800 -780 Descending Chicago Center
03:13PM 40.8197 -90.6242 66° East 442 509 30,000 -840 Descending Chicago Center
03:14PM 40.8692 -90.4775 66° East 436 502 29,100 -900 Descending Chicago Center
03:15PM 40.9181 -90.3319 66° East 432 497 28,200 -1,020 Descending Chicago Center
03:16PM 40.9736 -90.1619 67° East 437 503 27,100 -1,020 Descending Chicago Center
03:17PM 41.0258 -90.0053 66° East 435 501 26,100 -900 Descending Chicago Center
03:18PM 41.0742 -89.8569 67° East 435 501 25,300 -840 Descending Chicago Center
03:19PM 41.1217 -89.7108 67° East 429 494 24,500 -1,320 Descending Chicago Center
03:20PM 41.1706 -89.5647 66° East 431 496 22,700 -1,860 Descending Chicago Center
03:21PM 41.2258 -89.4300 61° Northeast 417 480 20,700 -1,920 Descending Chicago Center
03:22PM 41.2781 -89.3003 62° Northeast 401 461 18,800 -1,800 Descending Chicago Center
03:24PM 41.3319 -89.1639 62° Northeast 391 450 17,000 -1,740 Descending Chicago Center
03:25PM 41.3819 -89.0375 62° Northeast 387 445 15,300 -1,740 Descending Chicago Center
03:26PM 41.4317 -88.9144 62° Northeast 381 438 13,500 -1,860 Descending Chicago Center
03:27PM 41.4872 -88.7714 63° Northeast 363 418 11,500 -1,260 Descending Chicago Center
03:28PM 41.5319 -88.6594 62° Northeast 346 398 11,000 -240 Descending Chicago Center
03:29PM 41.5678 -88.5639 63° Northeast 291 335 11,100 -600 Climbing Chicago Center
03:30PM 41.5903 -88.4711 72° East 267 307 9,800 -1,260 Descending Chicago Center
03:31PM 41.6106 -88.3753 74° East 268 308 8,600 -900 Descending Chicago Center
03:32PM 41.6394 -88.2850 67° East 267 307 8,000 -360 Descending Chicago Center
03:33PM 41.6889 -88.2089 49° Northeast 272 313 7,900 -900 Descending Chicago Center
03:34PM 41.7408 -88.1492 41° Northeast 248 285 6,200 -1,560 Descending Chicago Center
03:35PM 41.7950 -88.0867 41° Northeast 224 258 4,800 -1,260 Descending Chicago Center
03:36PM 41.8356 -88.0389 41° Northeast 209 241 3,700 -1,080 Descending Chicago Center